Time;durP1;ratioP1;P1;durP2;ratioP2;P2;SDS_P1;SDS_P2;PMS_P1;PMS_P2;Temp;Humidity;BMP_temperature;BMP_pressure;BME280_temperature;BME280_humidity;BME280_pressure;Samples;Min_cycle;Max_cycle;Signal;HPM_P1;HPM_P2
2022/05/23 00:02:01;;;;;;;;;;;19.70;56.80;;;;;;4966944;28;87130;-51
2022/05/23 00:04:26;;;;;;;;;;;19.70;56.90;;;;;;4966794;28;87128;-51
2022/05/23 00:06:52;;;;;;;;;;;19.70;56.80;;;;;;4966055;28;88043;-52
2022/05/23 00:09:18;;;;;;;;;;;19.70;56.80;;;;;;4970176;28;86153;-50
2022/05/23 00:11:44;;;;;;;;;;;19.70;56.90;;;;;;4966284;28;88531;-50
2022/05/23 00:14:10;;;;;;;;;;;19.70;56.90;;;;;;4966961;28;86878;-51
2022/05/23 00:16:37;;;;;;;;;;;19.60;56.90;;;;;;4966055;28;87891;-53
2022/05/23 00:19:04;;;;;;;;;;;19.70;56.90;;;;;;4966202;28;88724;-52
2022/05/23 00:21:29;;;;;;;;;;;19.70;56.90;;;;;;4966661;28;86904;-51
2022/05/23 00:23:55;;;;;;;;;;;19.60;56.90;;;;;;4966703;28;87975;-50
2022/05/23 00:26:21;;;;;;;;;;;19.60;57.00;;;;;;4966109;28;88471;-50
2022/05/23 00:28:47;;;;;;;;;;;19.60;56.90;;;;;;4966589;28;87022;-53
2022/05/23 00:31:13;;;;;;;;;;;19.60;57.00;;;;;;4968984;28;88912;-51
2022/05/23 00:36:25;;;;;;;;;;;19.60;57.00;;;;;;4963613;28;86807;-53
2022/05/23 00:38:51;;;;;;;;;;;19.50;56.90;;;;;;4966085;28;88574;-50
2022/05/23 00:44:14;;;;;;;;;;;19.50;57.00;;;;;;4963432;28;87448;-52
2022/05/23 00:46:54;;;;;;;;;;;19.50;57.00;;;;;;4966166;28;87557;-50
2022/05/23 00:49:21;;;;;;;;;;;19.40;56.90;;;;;;4966296;28;86933;-50
2022/05/23 00:51:46;;;;;;;;;;;19.40;57.00;;;;;;4968797;28;87189;-51
2022/05/23 00:54:12;;;;;;;;;;;19.40;57.10;;;;;;4966250;28;86878;-50
2022/05/23 00:56:43;;;;;;;;;;;19.40;57.10;;;;;;4966265;28;87070;-50
2022/05/23 00:59:10;;;;;;;;;;;19.40;57.10;;;;;;4965568;28;86052;-54
2022/05/23 01:01:37;;;;;;;;;;;19.40;57.10;;;;;;4966165;28;86923;-51
2022/05/23 01:04:04;;;;;;;;;;;19.30;57.00;;;;;;4966165;28;87958;-51
2022/05/23 01:06:30;;;;;;;;;;;19.30;57.10;;;;;;4964793;28;88310;-52
2022/05/23 01:08:56;;;;;;;;;;;19.30;57.00;;;;;;4966022;28;87202;-52
2022/05/23 01:11:23;;;;;;;;;;;19.30;57.10;;;;;;4966132;28;87725;-49
2022/05/23 01:13:48;;;;;;;;;;;19.30;57.20;;;;;;4968681;28;86915;-50
2022/05/23 01:16:14;;;;;;;;;;;19.20;57.70;;;;;;4965370;28;87070;-50
2022/05/23 01:18:40;;;;;;;;;;;19.20;57.10;;;;;;4965708;28;87427;-51
2022/05/23 01:21:08;;;;;;;;;;;19.20;57.20;;;;;;4965935;28;86815;-52
2022/05/23 01:23:44;;;;;;;;;;;19.20;57.20;;;;;;4966302;28;87753;-49
2022/05/23 01:26:10;;;;;;;;;;;19.20;57.10;;;;;;4965424;28;87474;-51
2022/05/23 01:28:39;;;;;;;;;;;19.20;57.10;;;;;;4965923;28;86839;-50
2022/05/23 01:31:05;;;;;;;;;;;19.20;57.10;;;;;;4968616;28;87991;-50
2022/05/23 01:33:31;;;;;;;;;;;19.10;57.10;;;;;;4968719;28;89111;-50
2022/05/23 01:35:57;;;;;;;;;;;19.10;57.10;;;;;;4972034;28;87150;-49
2022/05/23 01:38:24;;;;;;;;;;;19.10;57.20;;;;;;4968674;28;87699;-52
2022/05/23 01:40:49;;;;;;;;;;;19.10;57.20;;;;;;4969179;28;86933;-50
2022/05/23 01:43:15;;;;;;;;;;;19.10;57.10;;;;;;4969095;28;87820;-49
2022/05/23 01:45:42;;;;;;;;;;;19.10;57.20;;;;;;4968783;28;87421;-50
2022/05/23 01:48:08;;;;;;;;;;;19.10;57.20;;;;;;4969464;28;86135;-51
2022/05/23 01:50:34;;;;;;;;;;;19.00;57.10;;;;;;4969162;28;86847;-52
2022/05/23 01:53:00;;;;;;;;;;;19.00;57.10;;;;;;4968428;28;87882;-49
2022/05/23 01:55:26;;;;;;;;;;;19.00;57.10;;;;;;4968294;28;87849;-50
2022/05/23 01:57:52;;;;;;;;;;;19.00;57.10;;;;;;4970718;28;88048;-50
2022/05/23 02:03:02;;;;;;;;;;;19.00;57.10;;;;;;4969066;28;87265;-50
2022/05/23 02:05:28;;;;;;;;;;;18.90;57.10;;;;;;4968368;28;87079;-50
2022/05/23 02:07:54;;;;;;;;;;;19.00;57.20;;;;;;4968665;28;86897;-52
2022/05/23 02:10:20;;;;;;;;;;;18.90;57.10;;;;;;4968634;28;88412;-53
2022/05/23 02:12:46;;;;;;;;;;;18.90;57.20;;;;;;4968711;28;87450;-50
2022/05/23 02:15:12;;;;;;;;;;;18.80;57.20;;;;;;4968369;28;87394;-52
2022/05/23 02:17:38;;;;;;;;;;;18.80;57.10;;;;;;4968773;28;87129;-49
2022/05/23 02:20:04;;;;;;;;;;;18.80;57.10;;;;;;4970478;28;88638;-49
2022/05/23 02:22:30;;;;;;;;;;;18.80;57.10;;;;;;4968336;28;89909;-49
2022/05/23 02:24:56;;;;;;;;;;;18.80;57.10;;;;;;4968009;28;88562;-49
2022/05/23 02:27:22;;;;;;;;;;;18.80;57.10;;;;;;4968259;28;86920;-50
2022/05/23 02:29:47;;;;;;;;;;;18.80;57.10;;;;;;4968226;28;88052;-51
2022/05/23 02:32:14;;;;;;;;;;;18.80;57.20;;;;;;4968113;28;87653;-50
2022/05/23 02:34:41;;;;;;;;;;;18.70;57.10;;;;;;4968221;28;87201;-51
2022/05/23 02:37:06;;;;;;;;;;;18.70;57.00;;;;;;4968621;28;88026;-50
2022/05/23 02:39:32;;;;;;;;;;;18.70;56.90;;;;;;4967859;28;87488;-50
2022/05/23 02:41:58;;;;;;;;;;;18.70;57.00;;;;;;4970807;28;87140;-49
2022/05/23 02:44:23;;;;;;;;;;;18.70;57.10;;;;;;4967010;28;88608;-52
2022/05/23 02:46:49;;;;;;;;;;;18.70;57.20;;;;;;4968254;28;86779;-50
2022/05/23 02:49:15;;;;;;;;;;;18.70;57.10;;;;;;4967932;28;88197;-51
2022/05/23 02:51:40;;;;;;;;;;;18.70;57.20;;;;;;4967964;28;86952;-49
2022/05/23 02:54:06;;;;;;;;;;;18.60;57.20;;;;;;4967900;28;86871;-49
2022/05/23 02:56:34;;;;;;;;;;;18.60;57.20;;;;;;4967950;28;87387;-51
2022/05/23 02:59:00;;;;;;;;;;;18.60;57.10;;;;;;4967467;28;88637;-51
2022/05/23 03:01:25;;;;;;;;;;;18.60;57.20;;;;;;4971449;28;86140;-49
2022/05/23 03:03:51;;;;;;;;;;;18.60;57.30;;;;;;4967407;28;88980;-51
2022/05/23 03:06:16;;;;;;;;;;;18.60;57.20;;;;;;4967363;28;86855;-50
2022/05/23 03:08:42;;;;;;;;;;;18.60;57.20;;;;;;4967146;28;88155;-51
2022/05/23 03:11:08;;;;;;;;;;;18.50;57.10;;;;;;4967635;28;87500;-49
2022/05/23 03:13:35;;;;;;;;;;;18.50;57.20;;;;;;4967596;28;86850;-49
2022/05/23 03:16:00;;;;;;;;;;;18.50;57.20;;;;;;4967707;28;87879;-51
2022/05/23 03:18:26;;;;;;;;;;;18.50;57.20;;;;;;4967419;28;86977;-51
2022/05/23 03:20:56;;;;;;;;;;;18.50;57.20;;;;;;4967547;28;87260;-49
2022/05/23 03:28:50;;;;;;;;;;;18.40;57.30;;;;;;4964673;28;87230;-50
2022/05/23 03:31:16;;;;;;;;;;;18.40;57.30;;;;;;4966430;28;87649;-50
2022/05/23 03:33:42;;;;;;;;;;;18.40;57.20;;;;;;4966697;28;87776;-50
2022/05/23 03:36:08;;;;;;;;;;;18.30;57.40;;;;;;4967564;28;87810;-50
2022/05/23 03:38:35;;;;;;;;;;;18.30;57.40;;;;;;4966975;28;87732;-49
2022/05/23 03:41:04;;;;;;;;;;;18.30;57.30;;;;;;4967295;28;86839;-50
2022/05/23 03:43:30;;;;;;;;;;;18.30;57.40;;;;;;4967167;28;88098;-50
2022/05/23 03:46:02;;;;;;;;;;;18.30;57.30;;;;;;4969330;28;87619;-50
2022/05/23 03:48:28;;;;;;;;;;;18.30;57.40;;;;;;4967400;28;86857;-50
2022/05/23 03:50:53;;;;;;;;;;;18.30;57.30;;;;;;4967188;28;88129;-51
2022/05/23 03:53:19;;;;;;;;;;;18.30;57.40;;;;;;4966319;28;86869;-50
2022/05/23 03:55:45;;;;;;;;;;;18.30;57.40;;;;;;4967066;28;88019;-49
2022/05/23 03:58:10;;;;;;;;;;;18.30;58.10;;;;;;4965850;28;88664;-51
2022/05/23 04:00:36;;;;;;;;;;;18.20;57.40;;;;;;4967013;28;87149;-51
2022/05/23 04:03:02;;;;;;;;;;;18.20;57.50;;;;;;4966955;28;88152;-51
2022/05/23 04:05:27;;;;;;;;;;;18.20;57.50;;;;;;4966565;28;87399;-50
2022/05/23 04:07:53;;;;;;;;;;;18.20;57.40;;;;;;4969698;28;87045;-53
2022/05/23 04:10:19;;;;;;;;;;;18.20;57.50;;;;;;4966580;28;88702;-51
2022/05/23 04:12:45;;;;;;;;;;;18.20;57.50;;;;;;4966742;28;86842;-50
2022/05/23 04:15:11;;;;;;;;;;;18.20;57.50;;;;;;4967278;28;88030;-53
2022/05/23 04:17:37;;;;;;;;;;;18.20;57.50;;;;;;4966355;28;87808;-52
2022/05/23 04:20:03;;;;;;;;;;;18.10;57.50;;;;;;4966710;28;86833;-49
2022/05/23 04:22:29;;;;;;;;;;;18.10;57.60;;;;;;4965177;28;88298;-51
2022/05/23 04:24:54;;;;;;;;;;;18.10;57.60;;;;;;4966257;28;87996;-50
2022/05/23 04:27:20;;;;;;;;;;;18.10;57.50;;;;;;4966773;28;87078;-50
2022/05/23 04:29:46;;;;;;;;;;;18.10;57.60;;;;;;4969108;28;87931;-50
2022/05/23 04:35:14;;;;;;;;;;;18.10;57.60;;;;;;4963843;28;87027;-49
2022/05/23 04:37:41;;;;;;;;;;;18.00;57.60;;;;;;4966222;28;88468;-52
2022/05/23 04:40:07;;;;;;;;;;;18.10;57.70;;;;;;4966987;28;86325;-54
2022/05/23 04:42:32;;;;;;;;;;;18.00;57.60;;;;;;4966647;28;86977;-49
2022/05/23 04:44:58;;;;;;;;;;;18.00;57.70;;;;;;4965950;28;89048;-52
2022/05/23 04:50:08;;;;;;;;;;;18.00;57.70;;;;;;4966100;28;86831;-50
2022/05/23 04:52:33;;;;;;;;;;;18.00;57.70;;;;;;4966267;28;86822;-50
2022/05/23 04:54:59;;;;;;;;;;;18.00;57.70;;;;;;4966386;28;88337;-51
2022/05/23 04:57:25;;;;;;;;;;;18.00;57.80;;;;;;4965753;28;88843;-50
2022/05/23 04:59:50;;;;;;;;;;;18.00;57.70;;;;;;4966242;28;87035;-49
2022/05/23 05:02:16;;;;;;;;;;;18.00;57.80;;;;;;4965489;28;86973;-50
2022/05/23 05:04:41;;;;;;;;;;;18.00;57.90;;;;;;4968172;28;86762;-49
2022/05/23 05:07:07;;;;;;;;;;;18.00;57.70;;;;;;4969162;28;86928;-49
2022/05/23 05:09:33;;;;;;;;;;;18.00;57.80;;;;;;4969826;28;86870;-49
2022/05/23 05:11:59;;;;;;;;;;;18.00;57.70;;;;;;4970824;28;88475;-50
2022/05/23 05:14:26;;;;;;;;;;;18.00;57.70;;;;;;4969700;28;86902;-50
2022/05/23 05:16:52;;;;;;;;;;;18.00;57.70;;;;;;4969034;28;87997;-51
2022/05/23 05:19:19;;;;;;;;;;;18.00;57.70;;;;;;4969433;28;86885;-49
2022/05/23 05:21:45;;;;;;;;;;;18.00;57.80;;;;;;4969411;28;87829;-51
2022/05/23 05:24:11;;;;;;;;;;;18.00;57.80;;;;;;4969253;28;87459;-50
2022/05/23 05:26:37;;;;;;;;;;;17.90;57.90;;;;;;4969245;28;86969;-49
2022/05/23 05:29:03;;;;;;;;;;;18.00;58.00;;;;;;4969752;28;88115;-49
2022/05/23 05:31:37;;;;;;;;;;;17.90;57.90;;;;;;4969181;28;87668;-50
2022/05/23 05:34:11;;;;;;;;;;;17.90;58.00;;;;;;4972063;28;86886;-50
2022/05/23 05:36:39;;;;;;;;;;;17.90;58.10;;;;;;4967564;28;88595;-49
2022/05/23 05:39:05;;;;;;;;;;;17.90;58.10;;;;;;4969061;28;86910;-49
2022/05/23 05:41:53;;;;;;;;;;;17.90;58.10;;;;;;4969339;28;87003;-49
2022/05/23 05:44:20;;;;;;;;;;;17.90;58.10;;;;;;4968751;28;88446;-49
2022/05/23 05:46:52;;;;;;;;;;;17.90;58.10;;;;;;4968901;28;86795;-49
2022/05/23 05:49:19;;;;;;;;;;;17.90;58.10;;;;;;4968035;28;87291;-52
2022/05/23 05:51:47;;;;;;;;;;;17.90;58.20;;;;;;4968601;28;88514;-51
2022/05/23 05:54:16;;;;;;;;;;;17.90;58.20;;;;;;4969378;28;86341;-52
2022/05/23 05:56:43;;;;;;;;;;;17.90;58.20;;;;;;4971394;28;87521;-53
2022/05/23 05:59:09;;;;;;;;;;;18.00;58.20;;;;;;4968854;28;86917;-49
2022/05/23 06:01:35;;;;;;;;;;;17.90;58.30;;;;;;4968293;28;87764;-49
2022/05/23 06:04:00;;;;;;;;;;;17.90;58.40;;;;;;4968536;28;88028;-49
2022/05/23 06:11:55;;;;;;;;;;;17.90;58.40;;;;;;4965334;28;87168;-51
2022/05/23 06:14:20;;;;;;;;;;;17.90;58.50;;;;;;4968241;28;87156;-50
2022/05/23 06:16:47;;;;;;;;;;;17.90;58.50;;;;;;4968311;28;87907;-49
2022/05/23 06:19:13;;;;;;;;;;;17.90;58.50;;;;;;4971396;28;87770;-54
2022/05/23 06:21:39;;;;;;;;;;;17.90;58.60;;;;;;4968639;28;87326;-54
2022/05/23 06:24:05;;;;;;;;;;;17.90;58.60;;;;;;4968112;28;88888;-49
2022/05/23 06:26:31;;;;;;;;;;;17.80;58.50;;;;;;4967712;28;87814;-50
2022/05/23 06:28:56;;;;;;;;;;;17.80;58.60;;;;;;4968282;28;89061;-50
2022/05/23 06:31:22;;;;;;;;;;;17.90;58.60;;;;;;4968022;28;88553;-51
2022/05/23 06:33:48;;;;;;;;;;;17.90;58.60;;;;;;4968294;28;86881;-49
2022/05/23 06:36:14;;;;;;;;;;;17.90;58.50;;;;;;4968483;28;87095;-50
2022/05/23 06:38:41;;;;;;;;;;;17.90;58.60;;;;;;4967882;28;87728;-50
2022/05/23 06:41:08;;;;;;;;;;;17.90;58.60;;;;;;4971135;28;86843;-49
2022/05/23 06:43:35;;;;;;;;;;;17.90;58.50;;;;;;4968279;28;87722;-49
2022/05/23 06:46:02;;;;;;;;;;;17.90;58.50;;;;;;4967976;28;87220;-50
2022/05/23 06:48:28;;;;;;;;;;;17.90;58.50;;;;;;4968192;28;88080;-50
2022/05/23 06:50:53;;;;;;;;;;;18.00;58.40;;;;;;4967221;28;88437;-49
2022/05/23 06:53:20;;;;;;;;;;;17.90;58.40;;;;;;4968028;28;86804;-50
2022/05/23 06:55:46;;;;;;;;;;;18.00;58.40;;;;;;4968014;28;87919;-49
2022/05/23 06:58:12;;;;;;;;;;;18.00;58.50;;;;;;4967879;28;87338;-49
2022/05/23 07:00:37;;;;;;;;;;;18.00;58.60;;;;;;4970788;28;86756;-49
2022/05/23 07:03:03;;;;;;;;;;;17.90;59.10;;;;;;4967495;28;88656;-49
2022/05/23 07:13:43;;;;;;;;;;;17.90;58.60;;;;;;4968022;28;86976;-49
2022/05/23 07:16:11;;;;;;;;;;;17.90;58.60;;;;;;4967173;28;87874;-49
2022/05/23 07:18:38;;;;;;;;;;;17.90;58.50;;;;;;4967558;28;87135;-49
2022/05/23 07:21:07;;;;;;;;;;;18.00;58.60;;;;;;4967603;28;86982;-49
2022/05/23 07:23:34;;;;;;;;;;;18.00;58.60;;;;;;4969987;28;87714;-49
2022/05/23 07:26:00;;;;;;;;;;;18.00;59.10;;;;;;4967098;28;86949;-49
2022/05/23 07:28:25;;;;;;;;;;;18.00;58.40;;;;;;4966872;28;87240;-49
2022/05/23 07:30:51;;;;;;;;;;;18.00;58.40;;;;;;4967079;28;88813;-49
2022/05/23 07:33:17;;;;;;;;;;;18.00;58.50;;;;;;4968128;28;86085;-49
2022/05/23 07:35:43;;;;;;;;;;;18.00;58.50;;;;;;4967844;28;86892;-49
2022/05/23 07:38:09;;;;;;;;;;;18.00;58.40;;;;;;4967154;28;87647;-49
2022/05/23 07:40:35;;;;;;;;;;;18.10;58.40;;;;;;4966021;28;87823;-49
2022/05/23 07:43:00;;;;;;;;;;;18.10;58.40;;;;;;4967216;28;89003;-49
2022/05/23 07:45:26;;;;;;;;;;;18.00;58.40;;;;;;4969915;28;87577;-49
2022/05/23 07:47:51;;;;;;;;;;;18.10;58.40;;;;;;4967220;28;88355;-49
2022/05/23 07:50:19;;;;;;;;;;;18.10;58.50;;;;;;4967089;28;87775;-49
2022/05/23 08:00:31;;;;;;;;;;;18.10;58.50;;;;;;4966289;28;86924;-49
2022/05/23 08:00:59;;;;;;;;;;;18.10;58.50;;;;;;4967247;28;86867;-50
2022/05/23 08:03:24;;;;;;;;;;;18.10;58.40;;;;;;4967243;28;87134;-49
2022/05/23 08:05:50;;;;;;;;;;;18.10;58.30;;;;;;4965511;28;88582;-49
2022/05/23 08:08:15;;;;;;;;;;;18.10;58.20;;;;;;4969780;28;86949;-49
2022/05/23 08:10:41;;;;;;;;;;;18.10;58.30;;;;;;4966548;28;88744;-50
2022/05/23 08:13:09;;;;;;;;;;;18.10;58.40;;;;;;4966832;28;86866;-50
2022/05/23 08:15:37;;;;;;;;;;;18.10;58.30;;;;;;4966860;28;87894;-49
2022/05/23 08:18:04;;;;;;;;;;;18.10;58.30;;;;;;4966388;28;88881;-49
2022/05/23 08:20:30;;;;;;;;;;;18.10;58.20;;;;;;4966810;28;86812;-51
2022/05/23 08:22:57;;;;;;;;;;;18.10;58.20;;;;;;4967509;28;86768;-53
2022/05/23 08:25:23;;;;;;;;;;;18.10;58.20;;;;;;4966327;28;88567;-51
2022/05/23 08:27:49;;;;;;;;;;;18.10;58.10;;;;;;4966592;28;86893;-50
2022/05/23 08:30:15;;;;;;;;;;;18.10;58.20;;;;;;4968541;28;87933;-50
2022/05/23 08:32:41;;;;;;;;;;;18.10;58.10;;;;;;4966877;28;86953;-50
2022/05/23 08:35:08;;;;;;;;;;;18.10;58.30;;;;;;4966647;28;87950;-50
2022/05/23 08:37:34;;;;;;;;;;;18.10;58.20;;;;;;4966329;28;88466;-49
2022/05/23 08:40:00;;;;;;;;;;;18.10;58.10;;;;;;4970103;28;86874;-49
2022/05/23 08:42:29;;;;;;;;;;;18.10;58.20;;;;;;4970320;28;86866;-50
2022/05/23 08:45:07;;;;;;;;;;;18.10;58.70;;;;;;4969521;28;88538;-50
2022/05/23 08:47:53;;;;;;;;;;;18.10;58.10;;;;;;4970287;28;86145;-49
2022/05/23 08:50:45;;;;;;;;;;;18.10;58.10;;;;;;4938892;28;86975;-50
2022/05/23 08:53:13;;;;;;;;;;;18.10;58.10;;;;;;4969285;28;88184;-53
2022/05/23 08:55:50;;;;;;;;;;;18.10;58.10;;;;;;4969395;28;87862;-53
2022/05/23 08:58:19;;;;;;;;;;;18.10;58.20;;;;;;4969655;28;86878;-49
2022/05/23 09:00:53;;;;;;;;;;;18.10;58.00;;;;;;4969935;28;86895;-49
2022/05/23 09:03:29;;;;;;;;;;;18.10;58.00;;;;;;4970029;28;87034;-50
2022/05/23 09:05:57;;;;;;;;;;;18.10;57.90;;;;;;4968955;28;87694;-49
2022/05/23 09:08:24;;;;;;;;;;;18.10;58.50;;;;;;4968953;28;86934;-50
2022/05/23 09:10:55;;;;;;;;;;;18.10;58.10;;;;;;4969924;28;86897;-49
2022/05/23 09:13:22;;;;;;;;;;;18.10;58.20;;;;;;4972811;28;87233;-49
2022/05/23 09:15:50;;;;;;;;;;;18.10;58.20;;;;;;4969079;28;86767;-49
2022/05/23 09:18:20;;;;;;;;;;;18.10;58.40;;;;;;4969420;28;87513;-49
2022/05/23 09:20:49;;;;;;;;;;;18.10;58.40;;;;;;4968963;28;87833;-49
2022/05/23 09:23:34;;;;;;;;;;;18.10;58.40;;;;;;4969341;28;88967;-49
2022/05/23 09:26:03;;;;;;;;;;;18.20;58.30;;;;;;4968951;28;88680;-49
2022/05/23 09:28:31;;;;;;;;;;;18.20;58.10;;;;;;4969336;28;86940;-49
2022/05/23 09:31:09;;;;;;;;;;;18.20;58.40;;;;;;4969319;28;87040;-49
2022/05/23 09:33:41;;;;;;;;;;;18.20;58.40;;;;;;4968791;28;88616;-49
2022/05/23 09:36:09;;;;;;;;;;;18.20;58.20;;;;;;4972325;28;86904;-49
2022/05/23 09:38:44;;;;;;;;;;;18.20;58.20;;;;;;4969260;28;87096;-50
2022/05/23 09:41:26;;;;;;;;;;;18.20;58.10;;;;;;4969219;28;86856;-49
2022/05/23 09:49:21;;;;;;;;;;;18.30;58.40;;;;;;4965610;28;86743;-49
2022/05/23 09:51:50;;;;;;;;;;;18.30;58.40;;;;;;4968944;28;86851;-49
2022/05/23 09:54:25;;;;;;;;;;;18.30;58.40;;;;;;4968479;28;88543;-49
2022/05/23 09:56:51;;;;;;;;;;;18.30;58.30;;;;;;4968949;28;86985;-49
2022/05/23 09:59:21;;;;;;;;;;;18.30;58.30;;;;;;4971340;28;87902;-50
2022/05/23 10:01:47;;;;;;;;;;;18.30;58.50;;;;;;4968775;28;86944;-49
2022/05/23 10:04:14;;;;;;;;;;;18.30;58.40;;;;;;4969196;28;88013;-50
2022/05/23 10:06:42;;;;;;;;;;;18.30;58.50;;;;;;4968400;28;87143;-49
2022/05/23 10:09:08;;;;;;;;;;;18.30;58.50;;;;;;4968624;28;86912;-49
2022/05/23 10:11:36;;;;;;;;;;;18.30;58.40;;;;;;4968072;28;88152;-49
2022/05/23 10:14:06;;;;;;;;;;;18.40;58.40;;;;;;4967684;28;87970;-49
2022/05/23 10:16:54;;;;;;;;;;;18.40;58.40;;;;;;4968549;28;87216;-49
2022/05/23 10:19:28;;;;;;;;;;;18.40;58.40;;;;;;4968454;28;87213;-50
2022/05/23 10:22:12;;;;;;;;;;;18.40;58.40;;;;;;4970924;28;88434;-50
2022/05/23 10:24:42;;;;;;;;;;;18.40;58.40;;;;;;4968654;28;87015;-49
2022/05/23 10:27:28;;;;;;;;;;;18.40;58.20;;;;;;4968079;28;87526;-49
2022/05/23 10:29:59;;;;;;;;;;;18.40;58.30;;;;;;4968376;28;86276;-50
2022/05/23 10:32:36;;;;;;;;;;;18.40;58.20;;;;;;4968329;28;87217;-52
2022/05/23 10:35:08;;;;;;;;;;;18.50;58.30;;;;;;4967897;28;88537;-49
2022/05/23 10:37:36;;;;;;;;;;;18.50;58.30;;;;;;4967427;28;87940;-52
2022/05/23 10:43:06;;;;;;;;;;;18.50;58.40;;;;;;4964879;28;87030;-49
2022/05/23 10:45:50;;;;;;;;;;;18.60;58.40;;;;;;4970928;28;86909;-49
2022/05/23 10:48:23;;;;;;;;;;;18.50;58.20;;;;;;4967702;28;88718;-51
2022/05/23 10:50:49;;;;;;;;;;;18.60;58.50;;;;;;4967942;28;86870;-49
2022/05/23 10:53:33;;;;;;;;;;;18.50;58.30;;;;;;4967992;28;87811;-50
2022/05/23 10:56:06;;;;;;;;;;;18.50;58.40;;;;;;4968027;28;88262;-50
2022/05/23 10:58:32;;;;;;;;;;;18.60;58.30;;;;;;4967865;28;86906;-49
2022/05/23 11:01:17;;;;;;;;;;;18.60;58.30;;;;;;4967810;28;88076;-49
2022/05/23 11:04:01;;;;;;;;;;;18.60;58.50;;;;;;4966587;28;89627;-49
2022/05/23 11:06:39;;;;;;;;;;;18.60;58.50;;;;;;4966964;28;86967;-51
2022/05/23 11:09:22;;;;;;;;;;;18.60;58.30;;;;;;4970122;28;87910;-51
2022/05/23 11:11:57;;;;;;;;;;;18.70;58.40;;;;;;4967880;28;86901;-51
2022/05/23 11:14:23;;;;;;;;;;;18.60;58.40;;;;;;4967950;28;86963;-49
2022/05/23 11:16:48;;;;;;;;;;;18.60;58.40;;;;;;4966902;28;88684;-49
2022/05/23 11:19:20;;;;;;;;;;;18.60;58.50;;;;;;4967434;28;87329;-49
2022/05/23 11:22:02;;;;;;;;;;;18.60;58.50;;;;;;4968323;28;86900;-49
2022/05/23 11:24:49;;;;;;;;;;;18.60;58.50;;;;;;4966512;28;87652;-50
2022/05/23 11:35:30;;;;;;;;;;;18.70;58.30;;;;;;4964584;28;87084;-49
2022/05/23 11:38:00;;;;;;;;;;;18.80;58.20;;;;;;4966773;28;88468;-50
2022/05/23 11:40:26;;;;;;;;;;;18.70;58.40;;;;;;4966965;28;87252;-49
2022/05/23 11:42:56;;;;;;;;;;;18.70;58.40;;;;;;4967015;28;87136;-49
2022/05/23 11:48:36;;;;;;;;;;;18.80;58.40;;;;;;4964496;28;86022;-49
2022/05/23 11:51:10;;;;;;;;;;;18.80;58.30;;;;;;4967041;28;86858;-50
2022/05/23 11:53:39;;;;;;;;;;;18.80;58.40;;;;;;4969619;28;87995;-50
2022/05/23 11:56:07;;;;;;;;;;;18.80;58.30;;;;;;4966225;28;88128;-50
2022/05/23 11:58:43;;;;;;;;;;;18.80;58.30;;;;;;4966312;28;88516;-49
2022/05/23 12:01:12;;;;;;;;;;;18.80;58.40;;;;;;4966626;28;86890;-50
2022/05/23 12:03:58;;;;;;;;;;;18.90;58.00;;;;;;4966669;28;86863;-50
2022/05/23 12:06:24;;;;;;;;;;;18.90;58.20;;;;;;4965217;28;90395;-50
2022/05/23 12:09:01;;;;;;;;;;;18.90;57.90;;;;;;4966129;28;86850;-51
2022/05/23 12:11:36;;;;;;;;;;;18.90;57.90;;;;;;4966336;28;88016;-50
2022/05/23 12:14:28;;;;;;;;;;;19.00;58.20;;;;;;4965991;28;88095;-50
2022/05/23 12:17:01;;;;;;;;;;;19.00;58.10;;;;;;4945516;28;87040;-50
2022/05/23 12:19:28;;;;;;;;;;;19.00;58.00;;;;;;4965782;28;88550;-50
2022/05/23 12:22:16;;;;;;;;;;;19.00;57.90;;;;;;4965540;28;87796;-50
2022/05/23 12:25:02;;;;;;;;;;;19.10;57.80;;;;;;4966052;28;88942;-49
2022/05/23 12:27:31;;;;;;;;;;;19.10;57.80;;;;;;4965592;28;87684;-49
2022/05/23 12:30:26;;;;;;;;;;;19.10;57.80;;;;;;4965833;28;86844;-50
2022/05/23 12:32:58;;;;;;;;;;;19.10;57.80;;;;;;4952116;28;87918;-50
2022/05/23 12:35:41;;;;;;;;;;;19.10;58.30;;;;;;4965529;28;88925;-50
2022/05/23 12:38:10;;;;;;;;;;;19.10;57.80;;;;;;4966135;28;86826;-52
2022/05/23 12:40:54;;;;;;;;;;;19.20;58.40;;;;;;4968918;28;87025;-49
2022/05/23 12:43:26;;;;;;;;;;;19.20;57.70;;;;;;4965774;28;86813;-49
2022/05/23 12:45:52;;;;;;;;;;;19.20;58.10;;;;;;4965699;28;87846;-51
2022/05/23 12:48:36;;;;;;;;;;;19.30;57.60;;;;;;4964916;28;88389;-50
2022/05/23 12:51:02;;;;;;;;;;;19.30;57.60;;;;;;4965695;28;87190;-49
2022/05/23 12:53:28;;;;;;;;;;;19.30;57.60;;;;;;4966038;28;86888;-49
2022/05/23 12:55:57;;;;;;;;;;;19.30;57.50;;;;;;4965288;28;88636;-50
2022/05/23 12:58:48;;;;;;;;;;;19.30;57.60;;;;;;4965811;28;87010;-49
2022/05/23 13:01:17;;;;;;;;;;;19.40;57.70;;;;;;4965649;28;88055;-49
2022/05/23 13:04:06;;;;;;;;;;;19.40;57.50;;;;;;4968342;28;87553;-52
2022/05/23 13:06:32;;;;;;;;;;;19.30;57.60;;;;;;4957631;28;86755;-49
2022/05/23 13:09:01;;;;;;;;;;;19.40;57.50;;;;;;4965301;28;88642;-49
2022/05/23 13:11:34;;;;;;;;;;;19.40;57.50;;;;;;4966127;28;87182;-49
2022/05/23 13:14:00;;;;;;;;;;;19.40;57.50;;;;;;4965251;28;87995;-49
2022/05/23 13:16:30;;;;;;;;;;;19.40;57.50;;;;;;4965384;28;87506;-49
2022/05/23 13:27:11;;;;;;;;;;;19.50;57.30;;;;;;4971854;28;87060;-49
2022/05/23 13:29:37;;;;;;;;;;;19.50;57.30;;;;;;4968551;28;87437;-49
2022/05/23 13:32:21;;;;;;;;;;;19.40;57.30;;;;;;4968770;28;86441;-50
2022/05/23 13:34:47;;;;;;;;;;;19.40;57.50;;;;;;4969224;28;87184;-49
2022/05/23 13:37:26;;;;;;;;;;;19.40;57.60;;;;;;4968822;28;87849;-49
2022/05/23 13:39:52;;;;;;;;;;;19.30;57.60;;;;;;4968386;28;87808;-49
2022/05/23 13:42:22;;;;;;;;;;;19.50;57.40;;;;;;4968944;28;88898;-49
2022/05/23 13:44:48;;;;;;;;;;;19.60;57.40;;;;;;4968618;28;88705;-49
2022/05/23 13:47:20;;;;;;;;;;;19.60;57.10;;;;;;4971985;28;86978;-49
2022/05/23 13:49:49;;;;;;;;;;;19.50;57.00;;;;;;4968701;28;87412;-49
2022/05/23 13:52:18;;;;;;;;;;;19.50;57.40;;;;;;4968813;28;87216;-49
2022/05/23 13:54:48;;;;;;;;;;;19.50;57.50;;;;;;4969014;28;87887;-49
2022/05/23 13:57:16;;;;;;;;;;;19.60;57.50;;;;;;4968370;28;86650;-49
2022/05/23 13:59:48;;;;;;;;;;;19.50;57.20;;;;;;4968865;28;86908;-49
2022/05/23 14:02:17;;;;;;;;;;;19.50;57.30;;;;;;4968800;28;88035;-49
2022/05/23 14:04:43;;;;;;;;;;;19.50;57.50;;;;;;4967418;28;89378;-49
2022/05/23 14:07:09;;;;;;;;;;;19.50;57.50;;;;;;4963713;28;86943;-49
2022/05/23 14:09:39;;;;;;;;;;;19.50;57.70;;;;;;4971154;28;87833;-50
2022/05/23 14:12:06;;;;;;;;;;;19.50;57.80;;;;;;4968866;28;86845;-49
2022/05/23 14:14:37;;;;;;;;;;;19.50;57.80;;;;;;4968302;28;87882;-49
2022/05/23 14:17:11;;;;;;;;;;;19.50;57.90;;;;;;4968059;28;89133;-49
2022/05/23 14:19:45;;;;;;;;;;;19.60;57.90;;;;;;4968592;28;86907;-49
2022/05/23 14:22:21;;;;;;;;;;;19.60;57.60;;;;;;4969269;28;86840;-49
2022/05/23 14:24:50;;;;;;;;;;;19.70;57.70;;;;;;4968074;28;88478;-49
2022/05/23 14:27:18;;;;;;;;;;;19.60;57.70;;;;;;4968352;28;87030;-49
2022/05/23 14:29:45;;;;;;;;;;;19.60;57.60;;;;;;4967954;28;87840;-49
2022/05/23 14:32:29;;;;;;;;;;;19.60;57.70;;;;;;4970849;28;87573;-49
2022/05/23 14:34:55;;;;;;;;;;;19.60;57.70;;;;;;4968262;28;87862;-50
2022/05/23 14:37:21;;;;;;;;;;;19.60;57.90;;;;;;4967270;28;88700;-50
2022/05/23 14:39:50;;;;;;;;;;;19.70;57.90;;;;;;4967702;28;86828;-50
2022/05/23 14:42:22;;;;;;;;;;;19.70;57.90;;;;;;4967741;28;88513;-50
2022/05/23 14:45:08;;;;;;;;;;;19.70;57.70;;;;;;4967629;28;87469;-50
2022/05/23 14:47:33;;;;;;;;;;;19.80;57.80;;;;;;4960457;28;86110;-50
2022/05/23 14:50:07;;;;;;;;;;;19.70;57.30;;;;;;4967646;28;86864;-49
2022/05/23 14:52:36;;;;;;;;;;;19.80;57.60;;;;;;4967485;28;87415;-49
2022/05/23 14:55:18;;;;;;;;;;;19.80;57.40;;;;;;4969790;28;88014;-49
2022/05/23 15:00:56;;;;;;;;;;;19.80;57.40;;;;;;4967847;28;86853;-49
2022/05/23 15:03:27;;;;;;;;;;;19.90;57.60;;;;;;4967191;28;87404;-50
2022/05/23 15:05:54;;;;;;;;;;;19.80;57.40;;;;;;4966638;28;88511;-50
2022/05/23 15:08:20;;;;;;;;;;;19.90;57.20;;;;;;4967150;28;86932;-50
2022/05/23 15:10:46;;;;;;;;;;;19.90;56.90;;;;;;4967386;28;87185;-50
2022/05/23 15:13:13;;;;;;;;;;;19.90;57.10;;;;;;4967441;28;87882;-50
2022/05/23 15:15:39;;;;;;;;;;;19.90;57.10;;;;;;4967302;28;86940;-50
2022/05/23 15:18:05;;;;;;;;;;;19.90;57.00;;;;;;4969870;28;87144;-50
2022/05/23 15:20:31;;;;;;;;;;;19.90;56.90;;;;;;4966559;28;87820;-50
2022/05/23 15:22:57;;;;;;;;;;;19.90;57.10;;;;;;4967145;28;88769;-50
2022/05/23 15:25:25;;;;;;;;;;;19.90;56.70;;;;;;4966801;28;89106;-50
2022/05/23 15:27:51;;;;;;;;;;;19.90;56.70;;;;;;4967053;28;86876;-49
2022/05/23 15:30:22;;;;;;;;;;;19.90;56.90;;;;;;4967072;28;87900;-50
2022/05/23 15:32:47;;;;;;;;;;;19.90;56.60;;;;;;4966685;28;88511;-49
2022/05/23 15:35:14;;;;;;;;;;;20.00;56.50;;;;;;4966999;28;86850;-50
2022/05/23 15:37:39;;;;;;;;;;;20.00;56.40;;;;;;4969132;28;89370;-50